sensor_id;sensor_type;location;lat;lon;timestamp;pressure;altitude;pressure_sealevel;temperature;humidity
39265;BME280;42646;51.910;7.724;2023-05-25T00:02:18;101919.47;;;10.23;99.16
39265;BME280;42646;51.910;7.724;2023-05-25T00:04:47;101914.47;;;10.18;98.92
39265;BME280;42646;51.910;7.724;2023-05-25T00:07:15;101918.31;;;10.14;97.77
39265;BME280;42646;51.910;7.724;2023-05-25T00:09:44;101922.97;;;10.10;97.38
39265;BME280;42646;51.910;7.724;2023-05-25T00:12:13;101915.09;;;10.09;97.36
39265;BME280;42646;51.910;7.724;2023-05-25T00:14:41;101916.16;;;10.06;97.53
39265;BME280;42646;51.910;7.724;2023-05-25T00:17:08;101915.53;;;10.03;98.11
39265;BME280;42646;51.910;7.724;2023-05-25T00:19:37;101916.56;;;10.00;97.88
39265;BME280;42646;51.910;7.724;2023-05-25T00:22:09;101920.28;;;9.98;97.91
39265;BME280;42646;51.910;7.724;2023-05-25T00:24:38;101919.53;;;9.96;97.76
39265;BME280;42646;51.910;7.724;2023-05-25T00:27:06;101909.13;;;9.93;98.29
39265;BME280;42646;51.910;7.724;2023-05-25T00:29:34;101910.16;;;9.90;98.38
39265;BME280;42646;51.910;7.724;2023-05-25T00:32:03;101900.59;;;9.87;98.97
39265;BME280;42646;51.910;7.724;2023-05-25T00:34:31;101907.06;;;9.83;99.00
39265;BME280;42646;51.910;7.724;2023-05-25T00:36:59;101908.31;;;9.78;98.97
39265;BME280;42646;51.910;7.724;2023-05-25T00:39:28;101910.47;;;9.73;98.47
39265;BME280;42646;51.910;7.724;2023-05-25T00:41:56;101910.75;;;9.68;98.01
39265;BME280;42646;51.910;7.724;2023-05-25T00:44:27;101910.09;;;9.64;97.17
39265;BME280;42646;51.910;7.724;2023-05-25T00:46:58;101912.13;;;9.61;96.81
39265;BME280;42646;51.910;7.724;2023-05-25T00:49:27;101914.13;;;9.57;96.69
39265;BME280;42646;51.910;7.724;2023-05-25T00:51:57;101912.59;;;9.53;96.51
39265;BME280;42646;51.910;7.724;2023-05-25T00:54:24;101908.34;;;9.51;96.99
39265;BME280;42646;51.910;7.724;2023-05-25T00:56:59;101912.06;;;9.48;97.88
39265;BME280;42646;51.910;7.724;2023-05-25T00:59:36;101914.06;;;9.45;98.23
39265;BME280;42646;51.910;7.724;2023-05-25T01:02:08;101917.88;;;9.41;97.96
39265;BME280;42646;51.910;7.724;2023-05-25T01:04:39;101921.66;;;9.36;97.56
39265;BME280;42646;51.910;7.724;2023-05-25T01:07:16;101919.22;;;9.33;97.90
39265;BME280;42646;51.910;7.724;2023-05-25T01:09:45;101921.22;;;9.30;98.16
39265;BME280;42646;51.910;7.724;2023-05-25T01:12:18;101929.50;;;9.25;97.75
39265;BME280;42646;51.910;7.724;2023-05-25T01:14:46;101928.84;;;9.22;97.47
39265;BME280;42646;51.910;7.724;2023-05-25T01:17:15;101932.63;;;9.18;97.26
39265;BME280;42646;51.910;7.724;2023-05-25T01:19:43;101938.16;;;9.15;97.33
39265;BME280;42646;51.910;7.724;2023-05-25T01:22:26;101937.47;;;9.11;96.64
39265;BME280;42646;51.910;7.724;2023-05-25T01:24:58;101935.88;;;9.08;96.76
39265;BME280;42646;51.910;7.724;2023-05-25T01:27:34;101930.66;;;9.07;97.03
39265;BME280;42646;51.910;7.724;2023-05-25T01:30:07;101930.84;;;9.04;97.83
39265;BME280;42646;51.910;7.724;2023-05-25T01:32:36;101928.94;;;9.06;98.49
39265;BME280;42646;51.910;7.724;2023-05-25T01:35:05;101926.41;;;9.04;99.09
39265;BME280;42646;51.910;7.724;2023-05-25T01:37:35;101924.59;;;9.05;99.75
39265;BME280;42646;51.910;7.724;2023-05-25T01:40:07;101926.41;;;9.04;99.93
39265;BME280;42646;51.910;7.724;2023-05-25T01:42:35;101934.47;;;9.03;100.00
39265;BME280;42646;51.910;7.724;2023-05-25T01:45:05;101931.72;;;9.04;100.00
39265;BME280;42646;51.910;7.724;2023-05-25T01:47:41;101930.00;;;9.03;100.00
39265;BME280;42646;51.910;7.724;2023-05-25T01:50:14;101927.47;;;9.02;100.00
39265;BME280;42646;51.910;7.724;2023-05-25T01:52:54;101925.72;;;9.01;100.00
39265;BME280;42646;51.910;7.724;2023-05-25T01:55:26;101932.94;;;8.99;100.00
39265;BME280;42646;51.910;7.724;2023-05-25T01:57:56;101932.09;;;8.98;100.00
39265;BME280;42646;51.910;7.724;2023-05-25T02:00:26;101926.03;;;8.96;99.82
39265;BME280;42646;51.910;7.724;2023-05-25T02:02:57;101928.69;;;8.96;99.17
39265;BME280;42646;51.910;7.724;2023-05-25T02:05:26;101924.41;;;8.94;98.57
39265;BME280;42646;51.910;7.724;2023-05-25T02:07:55;101923.66;;;8.92;98.13
39265;BME280;42646;51.910;7.724;2023-05-25T02:10:23;101923.78;;;8.90;97.75
39265;BME280;42646;51.910;7.724;2023-05-25T02:12:50;101925.66;;;8.88;97.35
39265;BME280;42646;51.910;7.724;2023-05-25T02:15:18;101920.56;;;8.85;97.42
39265;BME280;42646;51.910;7.724;2023-05-25T02:17:46;101927.66;;;8.85;97.22
39265;BME280;42646;51.910;7.724;2023-05-25T02:20:13;101931.28;;;8.83;98.02
39265;BME280;42646;51.910;7.724;2023-05-25T02:22:41;101929.53;;;8.82;98.69
39265;BME280;42646;51.910;7.724;2023-05-25T02:25:10;101917.44;;;8.78;99.42
39265;BME280;42646;51.910;7.724;2023-05-25T02:27:38;101921.97;;;8.76;99.48
39265;BME280;42646;51.910;7.724;2023-05-25T02:30:07;101920.38;;;8.74;99.57
39265;BME280;42646;51.910;7.724;2023-05-25T02:32:34;101918.66;;;8.73;99.58
39265;BME280;42646;51.910;7.724;2023-05-25T02:35:03;101918.84;;;8.70;100.00
39265;BME280;42646;51.910;7.724;2023-05-25T02:37:32;101930.50;;;8.67;100.00
39265;BME280;42646;51.910;7.724;2023-05-25T02:39:59;101922.94;;;8.61;100.00
39265;BME280;42646;51.910;7.724;2023-05-25T02:42:29;101929.34;;;8.57;99.66
39265;BME280;42646;51.910;7.724;2023-05-25T02:44:57;101934.00;;;8.53;98.98
39265;BME280;42646;51.910;7.724;2023-05-25T02:47:26;101943.94;;;8.50;98.58
39265;BME280;42646;51.910;7.724;2023-05-25T02:49:54;101940.63;;;8.46;98.43
39265;BME280;42646;51.910;7.724;2023-05-25T02:52:22;101938.25;;;8.42;98.17
39265;BME280;42646;51.910;7.724;2023-05-25T02:54:51;101938.44;;;8.39;98.34
39265;BME280;42646;51.910;7.724;2023-05-25T02:57:26;101932.38;;;8.37;98.05
39265;BME280;42646;51.910;7.724;2023-05-25T02:59:57;101938.69;;;8.34;98.44
39265;BME280;42646;51.910;7.724;2023-05-25T03:02:27;101949.38;;;8.33;99.22
39265;BME280;42646;51.910;7.724;2023-05-25T03:04:56;101952.31;;;8.28;99.68
39265;BME280;42646;51.910;7.724;2023-05-25T03:07:28;101956.06;;;8.24;99.68
39265;BME280;42646;51.910;7.724;2023-05-25T03:09:56;101952.88;;;8.19;99.37
39265;BME280;42646;51.910;7.724;2023-05-25T03:12:25;101951.22;;;8.16;99.01
39265;BME280;42646;51.910;7.724;2023-05-25T03:14:52;101964.59;;;8.15;98.87
39265;BME280;42646;51.910;7.724;2023-05-25T03:17:22;101969.13;;;8.13;99.63
39265;BME280;42646;51.910;7.724;2023-05-25T03:19:50;101972.91;;;8.09;99.64
39265;BME280;42646;51.910;7.724;2023-05-25T03:22:19;101970.41;;;8.06;99.70
39265;BME280;42646;51.910;7.724;2023-05-25T03:24:47;101976.00;;;8.01;99.42
39265;BME280;42646;51.910;7.724;2023-05-25T03:27:16;101977.88;;;7.99;99.03
39265;BME280;42646;51.910;7.724;2023-05-25T03:29:47;101979.88;;;7.95;98.88
39265;BME280;42646;51.910;7.724;2023-05-25T03:32:15;101978.22;;;7.93;98.58
39265;BME280;42646;51.910;7.724;2023-05-25T03:34:44;101980.13;;;7.91;97.99
39265;BME280;42646;51.910;7.724;2023-05-25T03:37:14;101980.22;;;7.89;97.96
39265;BME280;42646;51.910;7.724;2023-05-25T03:39:42;101982.88;;;7.89;97.80
39265;BME280;42646;51.910;7.724;2023-05-25T03:42:10;101988.22;;;7.88;97.79
39265;BME280;42646;51.910;7.724;2023-05-25T03:44:38;101991.06;;;7.85;98.00
39265;BME280;42646;51.910;7.724;2023-05-25T03:47:07;101983.13;;;7.85;97.70
39265;BME280;42646;51.910;7.724;2023-05-25T03:49:35;101983.22;;;7.83;98.12
39265;BME280;42646;51.910;7.724;2023-05-25T03:52:04;101984.13;;;7.82;98.16
39265;BME280;42646;51.910;7.724;2023-05-25T03:54:32;101986.78;;;7.82;98.06
39265;BME280;42646;51.910;7.724;2023-05-25T03:57:00;101988.53;;;7.83;98.61
39265;BME280;42646;51.910;7.724;2023-05-25T03:59:30;101989.44;;;7.82;99.55
39265;BME280;42646;51.910;7.724;2023-05-25T04:01:58;101996.53;;;7.82;99.57
39265;BME280;42646;51.910;7.724;2023-05-25T04:04:27;101987.81;;;7.80;99.59
39265;BME280;42646;51.910;7.724;2023-05-25T04:06:55;101998.44;;;7.80;99.46
39265;BME280;42646;51.910;7.724;2023-05-25T04:09:24;101989.72;;;7.78;99.13
39265;BME280;42646;51.910;7.724;2023-05-25T04:11:52;101992.44;;;7.76;99.09
39265;BME280;42646;51.910;7.724;2023-05-25T04:14:19;101996.88;;;7.75;98.52
39265;BME280;42646;51.910;7.724;2023-05-25T04:16:48;102001.22;;;7.76;98.68
39265;BME280;42646;51.910;7.724;2023-05-25T04:19:16;101994.22;;;7.75;99.06
39265;BME280;42646;51.910;7.724;2023-05-25T04:21:45;101996.81;;;7.77;99.28
39265;BME280;42646;51.910;7.724;2023-05-25T04:24:14;102001.06;;;7.80;99.93
39265;BME280;42646;51.910;7.724;2023-05-25T04:26:43;102004.47;;;7.82;100.00
39265;BME280;42646;51.910;7.724;2023-05-25T04:29:12;102007.97;;;7.82;100.00
39265;BME280;42646;51.910;7.724;2023-05-25T04:32:15;102012.06;;;7.88;100.00
39265;BME280;42646;51.910;7.724;2023-05-25T04:34:51;102012.78;;;7.91;100.00
39265;BME280;42646;51.910;7.724;2023-05-25T04:37:22;102016.28;;;7.92;100.00
39265;BME280;42646;51.910;7.724;2023-05-25T04:39:53;102018.75;;;7.95;100.00
39265;BME280;42646;51.910;7.724;2023-05-25T04:42:24;102025.66;;;7.97;100.00
39265;BME280;42646;51.910;7.724;2023-05-25T04:44:53;102027.38;;;7.98;100.00
39265;BME280;42646;51.910;7.724;2023-05-25T04:47:22;102027.22;;;8.01;100.00
39265;BME280;42646;51.910;7.724;2023-05-25T04:49:51;102027.00;;;8.04;100.00
39265;BME280;42646;51.910;7.724;2023-05-25T04:52:19;102026.84;;;8.08;100.00
39265;BME280;42646;51.910;7.724;2023-05-25T04:54:47;102037.94;;;8.14;100.00
39265;BME280;42646;51.910;7.724;2023-05-25T04:57:15;102032.56;;;8.16;100.00
39265;BME280;42646;51.910;7.724;2023-05-25T04:59:44;102034.94;;;8.20;100.00
39265;BME280;42646;51.910;7.724;2023-05-25T05:02:11;102038.19;;;8.25;100.00
39265;BME280;42646;51.910;7.724;2023-05-25T05:04:39;102042.28;;;8.31;100.00
39265;BME280;42646;51.910;7.724;2023-05-25T05:07:08;102036.66;;;8.37;100.00
39265;BME280;42646;51.910;7.724;2023-05-25T05:09:36;102049.53;;;8.43;100.00
39265;BME280;42646;51.910;7.724;2023-05-25T05:12:04;102048.34;;;8.49;100.00
39265;BME280;42646;51.910;7.724;2023-05-25T05:14:37;102045.31;;;8.55;100.00
39265;BME280;42646;51.910;7.724;2023-05-25T05:17:07;102037.94;;;8.60;100.00
39265;BME280;42646;51.910;7.724;2023-05-25T05:19:36;102043.72;;;8.67;100.00
39265;BME280;42646;51.910;7.724;2023-05-25T05:22:06;102041.72;;;8.70;100.00
39265;BME280;42646;51.910;7.724;2023-05-25T05:24:36;102052.94;;;8.75;100.00
39265;BME280;42646;51.910;7.724;2023-05-25T05:27:04;102047.25;;;8.81;100.00
39265;BME280;42646;51.910;7.724;2023-05-25T05:29:40;102048.69;;;8.87;100.00
39265;BME280;42646;51.910;7.724;2023-05-25T05:32:09;102052.75;;;8.93;100.00
39265;BME280;42646;51.910;7.724;2023-05-25T05:34:37;102057.69;;;8.99;100.00
39265;BME280;42646;51.910;7.724;2023-05-25T05:37:12;102048.50;;;9.04;100.00
39265;BME280;42646;51.910;7.724;2023-05-25T05:39:40;102056.94;;;9.11;100.00
39265;BME280;42646;51.910;7.724;2023-05-25T05:42:08;102062.72;;;9.18;100.00
39265;BME280;42646;51.910;7.724;2023-05-25T05:44:36;102053.53;;;9.23;100.00
39265;BME280;42646;51.910;7.724;2023-05-25T05:47:04;102061.88;;;9.31;100.00
39265;BME280;42646;51.910;7.724;2023-05-25T05:49:33;102065.97;;;9.37;100.00
39265;BME280;42646;51.910;7.724;2023-05-25T05:52:03;102065.38;;;9.46;100.00
39265;BME280;42646;51.910;7.724;2023-05-25T05:54:32;102074.66;;;9.53;100.00
39265;BME280;42646;51.910;7.724;2023-05-25T05:57:07;102084.72;;;9.62;100.00
39265;BME280;42646;51.910;7.724;2023-05-25T05:59:34;102080.53;;;9.73;100.00
39265;BME280;42646;51.910;7.724;2023-05-25T06:02:04;102086.94;;;9.83;100.00
39265;BME280;42646;51.910;7.724;2023-05-25T06:04:34;102092.66;;;9.91;100.00
39265;BME280;42646;51.910;7.724;2023-05-25T06:07:04;102094.69;;;10.00;100.00
39265;BME280;42646;51.910;7.724;2023-05-25T06:09:31;102097.63;;;10.10;100.00
39265;BME280;42646;51.910;7.724;2023-05-25T06:11:59;102101.47;;;10.18;100.00
39265;BME280;42646;51.910;7.724;2023-05-25T06:14:28;102101.09;;;10.25;100.00
39265;BME280;42646;51.910;7.724;2023-05-25T06:17:00;102097.28;;;10.29;100.00
39265;BME280;42646;51.910;7.724;2023-05-25T06:19:28;102097.63;;;10.37;100.00
39265;BME280;42646;51.910;7.724;2023-05-25T06:21:57;102096.28;;;10.44;100.00
39265;BME280;42646;51.910;7.724;2023-05-25T06:24:25;102096.72;;;10.51;100.00
39265;BME280;42646;51.910;7.724;2023-05-25T06:26:52;102112.28;;;10.57;100.00
39265;BME280;42646;51.910;7.724;2023-05-25T06:29:20;102108.25;;;10.64;100.00
39265;BME280;42646;51.910;7.724;2023-05-25T06:31:48;102108.78;;;10.69;100.00
39265;BME280;42646;51.910;7.724;2023-05-25T06:34:16;102110.09;;;10.76;100.00
39265;BME280;42646;51.910;7.724;2023-05-25T06:36:45;102111.47;;;10.82;100.00
39265;BME280;42646;51.910;7.724;2023-05-25T06:39:14;102105.63;;;10.89;100.00
39265;BME280;42646;51.910;7.724;2023-05-25T06:41:43;102110.53;;;10.95;100.00
39265;BME280;42646;51.910;7.724;2023-05-25T06:44:23;102115.34;;;11.03;100.00
39265;BME280;42646;51.910;7.724;2023-05-25T06:46:51;102104.34;;;11.08;100.00
39265;BME280;42646;51.910;7.724;2023-05-25T06:49:19;102102.13;;;11.14;100.00
39265;BME280;42646;51.910;7.724;2023-05-25T06:51:47;102102.56;;;11.21;100.00
39265;BME280;42646;51.910;7.724;2023-05-25T06:54:18;102103.19;;;11.24;100.00
39265;BME280;42646;51.910;7.724;2023-05-25T06:56:46;102108.09;;;11.31;100.00
39265;BME280;42646;51.910;7.724;2023-05-25T06:59:13;102113.94;;;11.36;99.89
39265;BME280;42646;51.910;7.724;2023-05-25T07:01:41;102116.41;;;11.39;99.38
39265;BME280;42646;51.910;7.724;2023-05-25T07:04:09;102115.34;;;11.41;98.98
39265;BME280;42646;51.910;7.724;2023-05-25T07:06:36;102112.56;;;11.43;98.15
39265;BME280;42646;51.910;7.724;2023-05-25T07:09:04;102117.88;;;11.43;97.80
39265;BME280;42646;51.910;7.724;2023-05-25T07:11:33;102119.50;;;11.45;97.52
39265;BME280;42646;51.910;7.724;2023-05-25T07:14:01;102117.44;;;11.49;97.30
39265;BME280;42646;51.910;7.724;2023-05-25T07:16:29;102123.13;;;11.57;97.33
39265;BME280;42646;51.910;7.724;2023-05-25T07:18:57;102124.25;;;11.66;97.31
39265;BME280;42646;51.910;7.724;2023-05-25T07:21:26;102121.28;;;11.70;97.13
39265;BME280;42646;51.910;7.724;2023-05-25T07:23:53;102121.91;;;11.74;96.61
39265;BME280;42646;51.910;7.724;2023-05-25T07:26:21;102116.59;;;11.74;95.88
39265;BME280;42646;51.910;7.724;2023-05-25T07:28:52;102120.81;;;11.76;96.00
39265;BME280;42646;51.910;7.724;2023-05-25T07:31:20;102122.31;;;11.81;96.03
39265;BME280;42646;51.910;7.724;2023-05-25T07:33:48;102126.41;;;11.86;95.65
39265;BME280;42646;51.910;7.724;2023-05-25T07:36:16;102122.66;;;11.89;95.68
39265;BME280;42646;51.910;7.724;2023-05-25T07:38:45;102130.31;;;11.93;95.27
39265;BME280;42646;51.910;7.724;2023-05-25T07:41:13;102131.91;;;11.96;94.83
39265;BME280;42646;51.910;7.724;2023-05-25T07:43:41;102140.53;;;11.99;94.55
39265;BME280;42646;51.910;7.724;2023-05-25T07:46:10;102140.31;;;12.02;94.80
39265;BME280;42646;51.910;7.724;2023-05-25T07:48:38;102139.25;;;12.05;94.48
39265;BME280;42646;51.910;7.724;2023-05-25T07:51:05;102142.53;;;12.09;94.62
39265;BME280;42646;51.910;7.724;2023-05-25T07:53:33;102141.34;;;12.13;94.48
39265;BME280;42646;51.910;7.724;2023-05-25T07:56:01;102143.69;;;12.17;94.43
39265;BME280;42646;51.910;7.724;2023-05-25T07:58:30;102144.22;;;12.22;94.78
39265;BME280;42646;51.910;7.724;2023-05-25T08:00:57;102142.16;;;12.26;94.74
39265;BME280;42646;51.910;7.724;2023-05-25T08:03:27;102151.53;;;12.32;94.36
39265;BME280;42646;51.910;7.724;2023-05-25T08:06:13;102160.28;;;12.34;94.13
39265;BME280;42646;51.910;7.724;2023-05-25T08:08:41;102151.06;;;12.38;94.04
39265;BME280;42646;51.910;7.724;2023-05-25T08:11:10;102149.88;;;12.42;93.87
39265;BME280;42646;51.910;7.724;2023-05-25T08:13:38;102148.78;;;12.44;93.65
39265;BME280;42646;51.910;7.724;2023-05-25T08:16:06;102152.94;;;12.48;93.66
39265;BME280;42646;51.910;7.724;2023-05-25T08:18:36;102147.41;;;12.51;93.35
39265;BME280;42646;51.910;7.724;2023-05-25T08:21:04;102151.50;;;12.55;92.97
39265;BME280;42646;51.910;7.724;2023-05-25T08:23:32;102158.34;;;12.60;92.75
39265;BME280;42646;51.910;7.724;2023-05-25T08:26:00;102152.88;;;12.61;92.52
39265;BME280;42646;51.910;7.724;2023-05-25T08:28:37;102151.91;;;12.62;92.45
39265;BME280;42646;51.910;7.724;2023-05-25T08:31:04;102156.06;;;12.66;92.74
39265;BME280;42646;51.910;7.724;2023-05-25T08:33:32;102160.31;;;12.69;93.14
39265;BME280;42646;51.910;7.724;2023-05-25T08:36:01;102158.41;;;12.71;92.66
39265;BME280;42646;51.910;7.724;2023-05-25T08:38:28;102165.22;;;12.75;92.71
39265;BME280;42646;51.910;7.724;2023-05-25T08:41:05;102171.16;;;12.78;92.70
39265;BME280;42646;51.910;7.724;2023-05-25T08:43:34;102169.22;;;12.80;92.74
39265;BME280;42646;51.910;7.724;2023-05-25T08:46:03;102173.72;;;12.80;92.36
39265;BME280;42646;51.910;7.724;2023-05-25T08:48:33;102168.16;;;12.83;91.78
39265;BME280;42646;51.910;7.724;2023-05-25T08:51:12;102167.19;;;12.84;91.62
39265;BME280;42646;51.910;7.724;2023-05-25T08:53:40;102168.66;;;12.88;91.31
39265;BME280;42646;51.910;7.724;2023-05-25T08:56:13;102173.16;;;12.88;91.37
39265;BME280;42646;51.910;7.724;2023-05-25T08:58:45;102164.75;;;12.92;91.45
39265;BME280;42646;51.910;7.724;2023-05-25T09:01:20;102177.06;;;12.95;91.44
39265;BME280;42646;51.910;7.724;2023-05-25T09:03:50;102177.44;;;13.01;91.46
39265;BME280;42646;51.910;7.724;2023-05-25T09:06:19;102172.72;;;13.05;90.81
39265;BME280;42646;51.910;7.724;2023-05-25T09:08:48;102172.59;;;13.06;90.29
39265;BME280;42646;51.910;7.724;2023-05-25T09:11:18;102181.97;;;13.12;89.93
39265;BME280;42646;51.910;7.724;2023-05-25T09:14:03;102180.88;;;13.15;88.63
39265;BME280;42646;51.910;7.724;2023-05-25T09:16:30;102181.38;;;13.20;88.44
39265;BME280;42646;51.910;7.724;2023-05-25T09:18:58;102184.44;;;13.26;88.43
39265;BME280;42646;51.910;7.724;2023-05-25T09:21:27;102181.91;;;13.25;87.75
39265;BME280;42646;51.910;7.724;2023-05-25T09:23:55;102184.44;;;13.26;87.48
39265;BME280;42646;51.910;7.724;2023-05-25T09:26:23;102177.78;;;13.32;87.63
39265;BME280;42646;51.910;7.724;2023-05-25T09:28:51;102181.66;;;13.39;87.62
39265;BME280;42646;51.910;7.724;2023-05-25T09:31:22;102187.66;;;13.43;87.33
39265;BME280;42646;51.910;7.724;2023-05-25T09:33:50;102186.44;;;13.47;86.94
39265;BME280;42646;51.910;7.724;2023-05-25T09:36:21;102178.03;;;13.51;87.10
39265;BME280;42646;51.910;7.724;2023-05-25T09:38:52;102189.22;;;13.56;86.84
39265;BME280;42646;51.910;7.724;2023-05-25T09:41:21;102179.75;;;13.63;86.87
39265;BME280;42646;51.910;7.724;2023-05-25T09:43:53;102178.31;;;13.71;86.65
39265;BME280;42646;51.910;7.724;2023-05-25T09:46:35;102181.34;;;13.77;85.94
39265;BME280;42646;51.910;7.724;2023-05-25T09:49:07;102178.91;;;13.85;85.04
39265;BME280;42646;51.910;7.724;2023-05-25T09:51:35;102188.13;;;13.93;84.98
39265;BME280;42646;51.910;7.724;2023-05-25T09:54:08;102184.97;;;13.99;84.11
39265;BME280;42646;51.910;7.724;2023-05-25T09:56:36;102181.72;;;14.06;83.68
39265;BME280;42646;51.910;7.724;2023-05-25T09:59:03;102178.75;;;14.09;82.58
39265;BME280;42646;51.910;7.724;2023-05-25T10:01:32;102183.97;;;14.11;82.33
39265;BME280;42646;51.910;7.724;2023-05-25T10:03:59;102189.97;;;14.14;82.21
39265;BME280;42646;51.910;7.724;2023-05-25T10:06:37;102188.97;;;14.15;81.87
39265;BME280;42646;51.910;7.724;2023-05-25T10:09:08;102188.84;;;14.17;82.04
39265;BME280;42646;51.910;7.724;2023-05-25T10:11:37;102194.94;;;14.19;81.86
39265;BME280;42646;51.910;7.724;2023-05-25T10:14:09;102190.56;;;14.18;81.61
39265;BME280;42646;51.910;7.724;2023-05-25T10:16:40;102202.97;;;14.19;81.49
39265;BME280;42646;51.910;7.724;2023-05-25T10:19:13;102210.25;;;14.17;81.59
39265;BME280;42646;51.910;7.724;2023-05-25T10:21:48;102211.97;;;14.18;81.34
39265;BME280;42646;51.910;7.724;2023-05-25T10:24:24;102201.88;;;14.22;80.49
39265;BME280;42646;51.910;7.724;2023-05-25T10:26:54;102211.59;;;14.23;80.40
39265;BME280;42646;51.910;7.724;2023-05-25T10:29:34;102206.97;;;14.25;80.06
39265;BME280;42646;51.910;7.724;2023-05-25T10:32:02;102207.47;;;14.30;79.83
39265;BME280;42646;51.910;7.724;2023-05-25T10:34:31;102208.31;;;14.30;79.05
39265;BME280;42646;51.910;7.724;2023-05-25T10:37:00;102205.03;;;14.27;79.14
39265;BME280;42646;51.910;7.724;2023-05-25T10:39:30;102203.94;;;14.29;78.67
39265;BME280;42646;51.910;7.724;2023-05-25T10:41:59;102218.53;;;14.25;79.09
39265;BME280;42646;51.910;7.724;2023-05-25T10:44:28;102217.91;;;14.22;78.46
39265;BME280;42646;51.910;7.724;2023-05-25T10:46:57;102219.63;;;14.23;78.47
39265;BME280;42646;51.910;7.724;2023-05-25T10:49:30;102218.78;;;14.22;78.82
39265;BME280;42646;51.910;7.724;2023-05-25T10:52:00;102220.59;;;14.22;78.44
39265;BME280;42646;51.910;7.724;2023-05-25T10:54:30;102221.22;;;14.25;78.67
39265;BME280;42646;51.910;7.724;2023-05-25T10:57:08;102220.94;;;14.28;78.63
39265;BME280;42646;51.910;7.724;2023-05-25T10:59:39;102207.47;;;14.30;78.72
39265;BME280;42646;51.910;7.724;2023-05-25T11:02:07;102206.97;;;14.36;78.41
39265;BME280;42646;51.910;7.724;2023-05-25T11:04:35;102204.88;;;14.39;78.01
39265;BME280;42646;51.910;7.724;2023-05-25T11:07:07;102201.34;;;14.39;77.21
39265;BME280;42646;51.910;7.724;2023-05-25T11:09:41;102200.25;;;14.41;76.95
39265;BME280;42646;51.910;7.724;2023-05-25T11:12:19;102200.63;;;14.48;77.48
39265;BME280;42646;51.910;7.724;2023-05-25T11:15:13;102205.13;;;14.59;77.84
39265;BME280;42646;51.910;7.724;2023-05-25T11:17:45;102203.50;;;14.67;78.27
39265;BME280;42646;51.910;7.724;2023-05-25T11:20:21;102197.25;;;14.78;78.75
39265;BME280;42646;51.910;7.724;2023-05-25T11:22:50;102198.28;;;14.87;76.46
39265;BME280;42646;51.910;7.724;2023-05-25T11:25:41;102195.84;;;14.95;76.14
39265;BME280;42646;51.910;7.724;2023-05-25T11:28:09;102186.44;;;15.01;76.08
39265;BME280;42646;51.910;7.724;2023-05-25T11:30:39;102185.78;;;15.08;75.84
39265;BME280;42646;51.910;7.724;2023-05-25T11:33:07;102177.34;;;15.13;75.29
39265;BME280;42646;51.910;7.724;2023-05-25T11:35:35;102181.44;;;15.17;74.76
39265;BME280;42646;51.910;7.724;2023-05-25T11:38:05;102172.88;;;15.23;75.43
39265;BME280;42646;51.910;7.724;2023-05-25T11:40:33;102181.25;;;15.30;74.69
39265;BME280;42646;51.910;7.724;2023-05-25T11:43:07;102168.19;;;15.36;73.73
39265;BME280;42646;51.910;7.724;2023-05-25T11:45:35;102170.59;;;15.39;72.59
39265;BME280;42646;51.910;7.724;2023-05-25T11:48:04;102164.97;;;15.42;72.04
39265;BME280;42646;51.910;7.724;2023-05-25T11:50:32;102163.69;;;15.46;70.93
39265;BME280;42646;51.910;7.724;2023-05-25T11:53:03;102154.66;;;15.47;70.67
39265;BME280;42646;51.910;7.724;2023-05-25T11:55:31;102155.84;;;15.55;71.11
39265;BME280;42646;51.910;7.724;2023-05-25T11:57:59;102160.69;;;15.61;71.10
39265;BME280;42646;51.910;7.724;2023-05-25T12:00:28;102152.84;;;15.69;70.25
39265;BME280;42646;51.910;7.724;2023-05-25T12:02:56;102153.88;;;15.78;70.79
39265;BME280;42646;51.910;7.724;2023-05-25T12:05:24;102155.03;;;15.85;70.15
39265;BME280;42646;51.910;7.724;2023-05-25T12:07:52;102150.81;;;15.92;69.85
39265;BME280;42646;51.910;7.724;2023-05-25T12:10:20;102142.34;;;15.96;69.79
39265;BME280;42646;51.910;7.724;2023-05-25T12:12:48;102142.19;;;15.98;69.15
39265;BME280;42646;51.910;7.724;2023-05-25T12:15:19;102140.22;;;16.00;69.24
39265;BME280;42646;51.910;7.724;2023-05-25T12:17:49;102140.94;;;16.02;68.35
39265;BME280;42646;51.910;7.724;2023-05-25T12:20:18;102140.66;;;16.05;69.19
39265;BME280;42646;51.910;7.724;2023-05-25T12:22:47;102131.66;;;16.16;69.13
39265;BME280;42646;51.910;7.724;2023-05-25T12:25:18;102133.22;;;16.28;67.36
39265;BME280;42646;51.910;7.724;2023-05-25T12:27:46;102124.88;;;16.41;65.89
39265;BME280;42646;51.910;7.724;2023-05-25T12:30:14;102129.28;;;16.51;64.04
39265;BME280;42646;51.910;7.724;2023-05-25T12:32:53;102136.34;;;16.62;65.37
39265;BME280;42646;51.910;7.724;2023-05-25T12:35:21;102138.47;;;16.68;64.41
39265;BME280;42646;51.910;7.724;2023-05-25T12:37:49;102139.19;;;16.70;63.31
39265;BME280;42646;51.910;7.724;2023-05-25T12:40:17;102127.47;;;16.71;61.97
39265;BME280;42646;51.910;7.724;2023-05-25T12:42:54;102125.03;;;16.78;61.03
39265;BME280;42646;51.910;7.724;2023-05-25T12:45:22;102127.47;;;16.91;61.84
39265;BME280;42646;51.910;7.724;2023-05-25T12:47:50;102120.94;;;17.03;61.17
39265;BME280;42646;51.910;7.724;2023-05-25T12:50:19;102121.03;;;17.11;61.30
39265;BME280;42646;51.910;7.724;2023-05-25T12:52:47;102119.63;;;17.17;60.73
39265;BME280;42646;51.910;7.724;2023-05-25T12:55:22;102124.84;;;17.18;60.67
39265;BME280;42646;51.910;7.724;2023-05-25T12:57:52;102116.94;;;17.17;60.51
39265;BME280;42646;51.910;7.724;2023-05-25T13:00:21;102115.78;;;17.19;60.48
39265;BME280;42646;51.910;7.724;2023-05-25T13:02:49;102111.66;;;17.25;58.64
39265;BME280;42646;51.910;7.724;2023-05-25T13:05:20;102116.44;;;17.41;59.18
39265;BME280;42646;51.910;7.724;2023-05-25T13:07:48;102099.66;;;17.56;59.14